createdAt,value
2023-10-23T00:02:06.744Z,81.91
2023-10-23T00:04:34.063Z,81.95
2023-10-23T00:07:01.326Z,81.85
2023-10-23T00:09:28.487Z,81.35
2023-10-23T00:11:55.639Z,81.51
2023-10-23T00:14:22.774Z,81.52
2023-10-23T00:16:51.329Z,81.42
2023-10-23T00:19:18.461Z,81.15
2023-10-23T00:21:46.059Z,81.15
2023-10-23T00:24:13.261Z,81.07
2023-10-23T00:26:40.569Z,81.22
2023-10-23T00:29:08.002Z,81.26
2023-10-23T00:31:35.113Z,81.26
2023-10-23T00:34:02.509Z,81.11
2023-10-23T00:36:29.820Z,81.47
2023-10-23T00:38:56.960Z,81.62
2023-10-23T00:41:24.230Z,81.84
2023-10-23T00:43:51.462Z,82.03
2023-10-23T00:46:22.593Z,81.86
2023-10-23T00:48:50.756Z,81.89
2023-10-23T00:51:20.982Z,82.07
2023-10-23T00:53:48.648Z,82.38
2023-10-23T00:56:15.971Z,82.06
2023-10-23T00:58:44.058Z,82.35
2023-10-23T01:01:13.816Z,82.14
2023-10-23T01:03:41.667Z,82.30
2023-10-23T01:06:10.758Z,82.57
2023-10-23T01:08:38.912Z,82.59
2023-10-23T01:11:06.674Z,82.62
2023-10-23T01:13:33.924Z,82.97
2023-10-23T01:16:01.037Z,82.77
2023-10-23T01:18:28.504Z,82.97
2023-10-23T01:20:55.720Z,82.89
2023-10-23T01:23:29.206Z,83.31
2023-10-23T01:25:56.462Z,83.46
2023-10-23T01:28:23.628Z,83.85
2023-10-23T01:30:51.035Z,83.75
2023-10-23T01:33:18.233Z,83.83
2023-10-23T01:35:45.554Z,84.08
2023-10-23T01:38:14.888Z,84.10
2023-10-23T01:40:42.055Z,84.50
2023-10-23T01:43:09.182Z,84.44
2023-10-23T01:45:37.483Z,84.90
2023-10-23T01:48:05.164Z,85.02
2023-10-23T01:50:32.541Z,85.17
2023-10-23T01:52:59.696Z,85.29
2023-10-23T01:55:27.753Z,85.09
2023-10-23T01:57:57.846Z,85.10
2023-10-23T02:00:26.421Z,85.07
2023-10-23T02:02:55.218Z,84.86
2023-10-23T02:05:22.376Z,84.81
2023-10-23T02:07:49.509Z,84.51
2023-10-23T02:10:16.597Z,84.72
2023-10-23T02:12:43.752Z,84.81
2023-10-23T02:15:12.126Z,84.88
2023-10-23T02:17:39.749Z,84.86
2023-10-23T02:20:07.461Z,84.75
2023-10-23T02:22:34.827Z,84.91
2023-10-23T02:25:02.147Z,84.71
2023-10-23T02:27:30.365Z,84.73
2023-10-23T02:29:57.634Z,84.68
2023-10-23T02:32:24.822Z,84.59
2023-10-23T02:34:51.943Z,84.53
2023-10-23T02:37:19.540Z,84.50
2023-10-23T02:39:46.678Z,84.70
2023-10-23T02:42:13.924Z,84.50
2023-10-23T02:44:41.030Z,84.56
2023-10-23T02:47:08.297Z,84.82
2023-10-23T02:49:35.601Z,84.99
2023-10-23T02:52:02.719Z,84.94
2023-10-23T02:54:30.905Z,84.87
2023-10-23T02:56:58.094Z,84.86
2023-10-23T02:59:25.222Z,84.97
2023-10-23T03:01:52.667Z,84.72
2023-10-23T03:04:19.956Z,85.04
2023-10-23T03:06:47.194Z,85.23
2023-10-23T03:09:15.512Z,85.06
2023-10-23T03:11:42.704Z,85.01
2023-10-23T03:14:10.170Z,84.92
2023-10-23T03:16:37.379Z,84.84
2023-10-23T03:19:04.928Z,85.04
2023-10-23T03:21:32.751Z,84.90
2023-10-23T03:24:00.006Z,84.96
2023-10-23T03:26:27.272Z,85.09
2023-10-23T03:28:54.372Z,85.45
2023-10-23T03:31:21.485Z,85.65
2023-10-23T03:33:49.375Z,85.86
2023-10-23T03:36:17.480Z,86.22
2023-10-23T03:38:46.727Z,86.39
2023-10-23T03:41:13.833Z,86.65
2023-10-23T03:43:41.811Z,86.64
2023-10-23T03:46:09.259Z,87.19
2023-10-23T03:48:38.254Z,87.05
2023-10-23T03:51:05.825Z,87.45
2023-10-23T03:53:33.067Z,87.37
2023-10-23T03:56:00.225Z,87.31
2023-10-23T03:58:27.408Z,87.63
2023-10-23T04:00:55.036Z,87.80
2023-10-23T04:03:22.931Z,87.79
2023-10-23T04:05:50.256Z,88.25
2023-10-23T04:08:17.508Z,87.92
2023-10-23T04:10:50.863Z,87.73
2023-10-23T04:13:18.118Z,88.07
2023-10-23T04:15:55.073Z,88.15
2023-10-23T04:18:22.741Z,88.35
2023-10-23T04:20:49.885Z,88.40
2023-10-23T04:23:17.245Z,88.43
2023-10-23T04:25:44.347Z,88.55
2023-10-23T04:28:11.441Z,88.38
2023-10-23T04:30:38.617Z,88.41
2023-10-23T04:33:05.879Z,88.68
2023-10-23T04:35:33.593Z,88.47
2023-10-23T04:38:00.789Z,88.47
2023-10-23T04:40:27.923Z,88.64
2023-10-23T04:42:55.137Z,88.90
2023-10-23T04:45:22.539Z,89.19
2023-10-23T04:47:49.712Z,89.18
2023-10-23T04:50:17.787Z,89.20
2023-10-23T04:52:45.061Z,89.12
2023-10-23T04:55:12.236Z,89.02
2023-10-23T04:57:39.474Z,89.26
2023-10-23T05:00:07.879Z,89.25
2023-10-23T05:02:35.374Z,89.20
2023-10-23T05:05:02.906Z,89.10
2023-10-23T05:07:30.234Z,88.95
2023-10-23T05:09:57.709Z,88.92
2023-10-23T05:12:24.937Z,89.18
2023-10-23T05:14:52.797Z,89.04
2023-10-23T05:17:19.896Z,88.88
2023-10-23T05:19:50.092Z,88.61
2023-10-23T05:22:17.158Z,88.50
2023-10-23T05:24:48.026Z,88.18
2023-10-23T05:27:16.099Z,88.04
2023-10-23T05:29:43.166Z,88.14
2023-10-23T05:32:10.468Z,87.99
2023-10-23T05:34:37.608Z,88.07
2023-10-23T05:37:05.074Z,87.98
2023-10-23T05:39:32.409Z,88.02
2023-10-23T05:41:59.585Z,88.09
2023-10-23T05:44:29.305Z,87.76
2023-10-23T05:46:56.661Z,87.57
2023-10-23T05:49:23.818Z,87.57
2023-10-23T05:51:50.933Z,87.54
2023-10-23T05:54:18.392Z,87.31
2023-10-23T05:56:45.463Z,87.13
2023-10-23T05:59:12.669Z,87.17
2023-10-23T06:01:39.821Z,87.09
2023-10-23T06:04:07.203Z,87.30
2023-10-23T06:06:34.663Z,87.33
2023-10-23T06:09:01.773Z,87.41
2023-10-23T06:11:28.953Z,87.85
2023-10-23T06:13:56.128Z,87.78
2023-10-23T06:16:23.301Z,87.84
2023-10-23T06:18:50.558Z,88.28
2023-10-23T06:21:17.827Z,88.16
2023-10-23T06:23:45.093Z,88.26
2023-10-23T06:26:12.274Z,88.24
2023-10-23T06:28:39.475Z,88.28
2023-10-23T06:31:11.282Z,88.03
2023-10-23T06:33:40.458Z,88.06
2023-10-23T06:36:09.292Z,87.85
2023-10-23T06:38:37.394Z,88.24
2023-10-23T06:41:06.286Z,88.40
2023-10-23T06:43:34.168Z,88.60
2023-10-23T06:46:02.964Z,88.83
2023-10-23T06:48:31.740Z,89.14
2023-10-23T06:50:59.525Z,89.46
2023-10-23T06:53:26.812Z,89.51
2023-10-23T06:55:55.665Z,89.46
2023-10-23T06:58:23.441Z,89.43
2023-10-23T07:00:50.716Z,89.49
2023-10-23T07:03:18.179Z,89.65
2023-10-23T07:05:45.751Z,89.28
2023-10-23T07:08:13.601Z,89.91
2023-10-23T07:10:40.791Z,89.91
2023-10-23T07:13:21.282Z,90.06
2023-10-23T07:15:51.683Z,90.38
2023-10-23T07:18:19.388Z,90.62
2023-10-23T07:20:54.857Z,90.85
2023-10-23T07:23:23.593Z,90.87
2023-10-23T07:26:04.546Z,90.94
2023-10-23T07:28:31.663Z,90.98
2023-10-23T07:30:58.834Z,90.93
2023-10-23T07:33:26.018Z,90.57
2023-10-23T07:36:02.259Z,90.87
2023-10-23T07:38:29.619Z,90.85
2023-10-23T07:40:57.205Z,90.81
2023-10-23T07:43:25.986Z,90.73
2023-10-23T07:46:04.150Z,91.04
2023-10-23T07:48:35.936Z,90.99
2023-10-23T07:51:05.184Z,90.78
2023-10-23T07:53:36.833Z,91.13
2023-10-23T07:56:07.399Z,91.23
2023-10-23T07:58:35.154Z,90.98
2023-10-23T08:01:07.383Z,90.88
2023-10-23T08:03:35.749Z,90.75
2023-10-23T08:06:05.888Z,90.20
2023-10-23T08:08:35.564Z,90.09
2023-10-23T08:11:07.795Z,89.61
2023-10-23T08:13:36.013Z,90.01
2023-10-23T08:16:05.351Z,90.56
2023-10-23T08:21:09.688Z,91.28
2023-10-23T08:23:36.847Z,91.02
2023-10-23T08:26:05.038Z,91.28
2023-10-23T08:28:49.226Z,91.30
2023-10-23T08:31:34.224Z,91.53
2023-10-23T08:34:05.250Z,91.32
2023-10-23T08:36:32.646Z,91.04
2023-10-23T08:39:00.928Z,90.96
2023-10-23T08:41:28.420Z,90.85
2023-10-23T08:43:57.190Z,91.12
2023-10-23T08:46:31.189Z,91.30
2023-10-23T08:48:58.803Z,91.44
2023-10-23T08:51:27.803Z,91.51
2023-10-23T08:54:11.117Z,91.49
2023-10-23T08:56:42.347Z,91.81
2023-10-23T08:59:17.011Z,91.98
2023-10-23T09:01:44.353Z,92.14
2023-10-23T09:04:13.323Z,92.33
2023-10-23T09:06:41.487Z,92.13
2023-10-23T09:09:08.866Z,92.27
2023-10-23T09:11:48.606Z,92.05
2023-10-23T09:14:32.479Z,92.17
2023-10-23T09:17:01.465Z,92.42
2023-10-23T09:19:35.964Z,92.30
2023-10-23T09:22:05.412Z,92.35
2023-10-23T09:24:32.763Z,92.59
2023-10-23T09:27:00.112Z,92.80
2023-10-23T09:29:29.142Z,92.97
2023-10-23T09:31:59.135Z,92.99
2023-10-23T09:34:26.941Z,93.10
2023-10-23T09:36:54.867Z,93.11
2023-10-23T09:39:24.104Z,93.24
2023-10-23T09:41:52.470Z,93.18
2023-10-23T09:44:19.857Z,93.23
2023-10-23T09:46:49.701Z,93.39
2023-10-23T09:49:18.346Z,93.08
2023-10-23T09:51:49.905Z,93.39
2023-10-23T09:54:23.571Z,93.24
2023-10-23T09:56:55.247Z,93.22
2023-10-23T09:59:25.671Z,93.18
2023-10-23T10:02:01.573Z,93.10
2023-10-23T10:05:01.745Z,92.94
2023-10-23T10:07:49.430Z,92.96
2023-10-23T10:10:16.881Z,93.17
2023-10-23T10:12:44.142Z,92.86
2023-10-23T10:15:15.209Z,92.66
2023-10-23T10:17:45.214Z,92.52
2023-10-23T10:20:13.049Z,92.88
2023-10-23T10:22:42.996Z,92.54
2023-10-23T10:25:12.884Z,92.65
2023-10-23T10:27:40.570Z,92.39
2023-10-23T10:30:39.448Z,92.26
2023-10-23T10:34:21.508Z,92.12
2023-10-23T10:36:06.558Z,91.91
2023-10-23T10:38:35.458Z,91.69
2023-10-23T10:41:04.649Z,91.86
2023-10-23T10:43:34.056Z,91.67
2023-10-23T10:46:19.676Z,91.31
2023-10-23T10:48:48.410Z,90.67
2023-10-23T10:51:18.057Z,90.56
2023-10-23T10:53:48.268Z,90.40
2023-10-23T10:56:16.192Z,90.05
2023-10-23T10:58:47.204Z,89.96
2023-10-23T11:01:14.362Z,89.52
2023-10-23T11:03:43.373Z,89.53
2023-10-23T11:06:11.777Z,89.73
2023-10-23T11:08:42.683Z,89.39
2023-10-23T11:11:11.026Z,89.11
2023-10-23T11:13:38.812Z,88.96
2023-10-23T11:16:06.329Z,89.12
2023-10-23T11:18:33.846Z,88.51
2023-10-23T11:21:01.791Z,88.39
2023-10-23T11:23:33.008Z,88.53
2023-10-23T11:26:00.202Z,88.33
2023-10-23T11:28:27.413Z,88.16
2023-10-23T11:31:01.404Z,88.17
2023-10-23T11:33:28.715Z,88.08
2023-10-23T11:35:55.843Z,88.04
2023-10-23T11:38:25.594Z,87.87
2023-10-23T11:40:54.803Z,87.96
2023-10-23T11:43:22.017Z,87.69
2023-10-23T11:45:49.671Z,87.86
2023-10-23T11:48:17.082Z,87.78
2023-10-23T11:50:44.370Z,87.26
2023-10-23T11:53:11.618Z,87.35
2023-10-23T11:55:39.493Z,87.28
2023-10-23T11:58:06.819Z,87.32
2023-10-23T12:00:35.520Z,87.23
2023-10-23T12:03:03.072Z,86.81
2023-10-23T12:05:30.240Z,86.92
2023-10-23T12:07:57.928Z,86.69
2023-10-23T12:10:27.126Z,86.75
2023-10-23T12:12:55.348Z,86.54
2023-10-23T12:15:25.005Z,86.66
2023-10-23T12:17:52.707Z,86.78
2023-10-23T12:20:23.558Z,86.54
2023-10-23T12:22:53.290Z,86.43
2023-10-23T12:25:21.192Z,86.66
2023-10-23T12:27:48.577Z,86.30
2023-10-23T12:30:27.112Z,86.12
2023-10-23T12:33:13.599Z,86.02
2023-10-23T12:35:42.551Z,86.13
2023-10-23T12:38:12.278Z,85.96
2023-10-23T12:40:40.628Z,85.88
2023-10-23T12:43:07.962Z,86.05
2023-10-23T12:45:35.211Z,86.09
2023-10-23T12:48:02.391Z,86.28
2023-10-23T12:50:30.365Z,86.17
2023-10-23T12:52:58.359Z,86.07
2023-10-23T12:55:25.782Z,85.98
2023-10-23T12:57:52.993Z,86.12
2023-10-23T13:00:20.102Z,86.06
2023-10-23T13:02:47.379Z,85.92
2023-10-23T13:05:14.987Z,85.89
2023-10-23T13:07:42.275Z,85.72
2023-10-23T13:10:09.771Z,85.68
2023-10-23T13:12:36.884Z,85.58
2023-10-23T13:15:05.512Z,85.32
2023-10-23T13:17:32.929Z,85.51
2023-10-23T13:21:31.046Z,85.25
2023-10-23T13:22:50.096Z,84.96
2023-10-23T13:25:19.305Z,84.85
2023-10-23T13:27:46.554Z,84.93
2023-10-23T13:30:13.811Z,84.92
2023-10-23T13:32:41.210Z,84.95
2023-10-23T13:35:09.473Z,84.97
2023-10-23T13:37:36.978Z,84.85
2023-10-23T13:40:08.987Z,84.81
2023-10-23T13:42:36.830Z,85.08
2023-10-23T13:45:04.568Z,85.20
2023-10-23T13:47:32.519Z,85.32
2023-10-23T13:49:59.818Z,84.97
2023-10-23T13:52:27.213Z,84.97
2023-10-23T13:54:57.277Z,84.92
2023-10-23T13:57:26.063Z,85.09
2023-10-23T13:59:53.361Z,85.13
2023-10-23T14:02:20.566Z,85.19
2023-10-23T14:04:49.529Z,84.91
2023-10-23T14:07:16.819Z,84.99
2023-10-23T14:09:47.236Z,85.05
2023-10-23T14:12:17.143Z,85.04
2023-10-23T14:14:44.379Z,84.76
2023-10-23T14:17:11.669Z,84.63
2023-10-23T14:22:10.718Z,84.63
2023-10-23T14:24:38.122Z,84.71
2023-10-23T14:27:05.456Z,84.40
2023-10-23T14:29:33.861Z,84.27
2023-10-23T14:32:01.593Z,84.59
2023-10-23T14:34:29.330Z,84.30
2023-10-23T14:36:57.180Z,84.30
2023-10-23T14:39:28.552Z,84.63
2023-10-23T14:41:55.940Z,84.55
2023-10-23T14:44:25.148Z,84.46
2023-10-23T14:46:53.085Z,84.47
2023-10-23T14:49:22.084Z,84.43
2023-10-23T14:51:51.385Z,84.59
2023-10-23T14:54:18.492Z,84.60
2023-10-23T14:56:46.218Z,84.52
2023-10-23T14:59:13.745Z,84.58
2023-10-23T15:01:40.919Z,84.52
2023-10-23T15:04:08.530Z,84.54
2023-10-23T15:06:35.867Z,84.55
2023-10-23T15:09:02.999Z,84.48
2023-10-23T15:11:30.159Z,84.27
2023-10-23T15:13:57.319Z,84.36
2023-10-23T15:16:24.508Z,84.25
2023-10-23T15:18:53.433Z,84.41
2023-10-23T15:21:20.584Z,84.41
2023-10-23T15:23:47.774Z,84.34
2023-10-23T15:26:14.943Z,84.44
2023-10-23T15:28:42.248Z,84.41
2023-10-23T15:31:09.874Z,84.51
2023-10-23T15:33:37.452Z,84.44
2023-10-23T15:36:06.220Z,84.47
2023-10-23T15:38:36.748Z,84.39
2023-10-23T15:41:26.931Z,84.46
2023-10-23T15:43:57.230Z,84.26
2023-10-23T15:46:24.875Z,84.45
2023-10-23T15:48:52.227Z,84.34
2023-10-23T15:51:19.470Z,84.31
2023-10-23T15:53:46.550Z,84.41
2023-10-23T15:56:13.662Z,84.55
2023-10-23T15:58:40.786Z,84.58
2023-10-23T16:01:08.434Z,84.57
2023-10-23T16:03:36.849Z,84.57
2023-10-23T16:06:09.633Z,84.71
2023-10-23T16:08:37.710Z,84.71
2023-10-23T16:11:05.183Z,84.51
2023-10-23T16:13:40.061Z,84.67
2023-10-23T16:16:14.396Z,84.45
2023-10-23T16:18:45.585Z,84.53
2023-10-23T16:21:17.091Z,84.39
2023-10-23T16:23:44.680Z,84.61
2023-10-23T16:26:12.117Z,84.51
2023-10-23T16:28:40.206Z,84.63
2023-10-23T16:31:09.999Z,84.55
2023-10-23T16:33:37.260Z,84.43
2023-10-23T16:36:04.599Z,84.79
2023-10-23T16:38:31.704Z,84.61
2023-10-23T16:40:58.886Z,84.48
2023-10-23T16:43:26.164Z,84.67
2023-10-23T16:45:53.378Z,84.74
2023-10-23T16:48:20.606Z,84.64
2023-10-23T16:50:47.926Z,84.85
2023-10-23T16:53:15.053Z,84.66
2023-10-23T16:55:42.235Z,84.53
2023-10-23T16:58:09.399Z,84.80
2023-10-23T17:00:37.048Z,84.69
2023-10-23T17:03:04.597Z,84.71
2023-10-23T17:05:36.113Z,84.53
2023-10-23T17:08:03.884Z,84.57
2023-10-23T17:10:31.036Z,84.71
2023-10-23T17:12:58.215Z,84.56
2023-10-23T17:15:25.326Z,84.62
2023-10-23T17:17:52.423Z,84.41
2023-10-23T17:20:19.600Z,84.53
2023-10-23T17:22:46.835Z,84.79
2023-10-23T17:25:13.966Z,84.74
2023-10-23T17:27:41.180Z,84.82
2023-10-23T17:30:10.757Z,84.70
2023-10-23T17:32:38.021Z,84.62
2023-10-23T17:35:05.379Z,84.81
2023-10-23T17:37:33.497Z,84.98
2023-10-23T17:40:01.022Z,84.46
2023-10-23T17:42:28.277Z,84.55
2023-10-23T17:44:55.368Z,84.61
2023-10-23T17:47:22.693Z,84.66
2023-10-23T17:49:50.671Z,84.60
2023-10-23T17:52:19.296Z,84.50
2023-10-23T17:54:48.450Z,84.52
2023-10-23T17:57:18.082Z,84.74
2023-10-23T17:59:45.329Z,84.67
2023-10-23T18:02:13.201Z,84.61
2023-10-23T18:04:40.539Z,84.57
2023-10-23T18:07:07.728Z,84.59
2023-10-23T18:09:34.857Z,84.83
2023-10-23T18:12:02.206Z,84.68
2023-10-23T18:14:29.380Z,84.72
2023-10-23T18:16:59.797Z,84.77
2023-10-23T18:19:26.998Z,84.95
2023-10-23T18:21:57.417Z,85.00
2023-10-23T18:24:24.556Z,85.14
2023-10-23T18:26:51.677Z,85.18
2023-10-23T18:29:18.871Z,85.14
2023-10-23T18:31:47.447Z,84.86
2023-10-23T18:34:14.767Z,85.05
2023-10-23T18:36:41.867Z,85.15
2023-10-23T18:39:08.998Z,85.29
2023-10-23T18:41:36.136Z,85.30
2023-10-23T18:44:03.420Z,85.20
2023-10-23T18:46:31.014Z,85.23
2023-10-23T18:48:59.542Z,85.42
2023-10-23T18:51:27.533Z,85.56
2023-10-23T18:53:55.450Z,85.50
2023-10-23T18:56:22.992Z,85.81
2023-10-23T18:58:50.058Z,85.55
2023-10-23T19:01:18.259Z,85.58
2023-10-23T19:03:45.570Z,85.67
2023-10-23T19:06:13.994Z,85.97
2023-10-23T19:08:42.492Z,86.14
2023-10-23T19:11:10.461Z,86.19
2023-10-23T19:13:37.635Z,85.85
2023-10-23T19:16:05.173Z,86.15
2023-10-23T19:18:32.586Z,86.13
2023-10-23T19:21:06.505Z,86.03
2023-10-23T19:23:33.631Z,86.26
2023-10-23T19:26:00.801Z,86.29
2023-10-23T19:28:29.419Z,86.46
2023-10-23T19:30:57.363Z,86.35
2023-10-23T19:33:24.922Z,86.10
2023-10-23T19:35:52.307Z,86.41
2023-10-23T19:38:20.963Z,86.66
2023-10-23T19:40:52.164Z,86.45
2023-10-23T19:43:22.393Z,86.54
2023-10-23T19:45:49.817Z,86.65
2023-10-23T19:48:17.333Z,86.52
2023-10-23T19:50:46.674Z,86.50
2023-10-23T19:53:16.657Z,86.60
2023-10-23T19:55:47.323Z,86.77
2023-10-23T19:58:17.076Z,86.68
2023-10-23T20:00:44.331Z,86.89
2023-10-23T20:03:11.509Z,86.89
2023-10-23T20:05:38.743Z,86.77
2023-10-23T20:08:06.295Z,86.83
2023-10-23T20:10:33.665Z,87.09
2023-10-23T20:13:01.034Z,87.27
2023-10-23T20:15:30.562Z,87.21
2023-10-23T20:17:57.818Z,87.35
2023-10-23T20:20:25.322Z,87.11
2023-10-23T20:22:52.882Z,87.24
2023-10-23T20:25:20.010Z,87.28
2023-10-23T20:27:47.201Z,87.34
2023-10-23T20:30:14.548Z,87.22
2023-10-23T20:32:42.042Z,87.37
2023-10-23T20:35:09.736Z,87.46
2023-10-23T20:37:37.239Z,87.77
2023-10-23T20:40:05.173Z,87.70
2023-10-23T20:42:37.457Z,88.00
2023-10-23T20:45:06.674Z,87.86
2023-10-23T20:47:34.775Z,87.86
2023-10-23T20:50:02.878Z,88.02
2023-10-23T20:52:31.568Z,87.94
2023-10-23T20:54:58.946Z,88.04
2023-10-23T20:57:26.298Z,88.07
2023-10-23T20:59:53.539Z,88.14
2023-10-23T21:02:20.750Z,88.17
2023-10-23T21:04:48.058Z,88.12
2023-10-23T21:07:15.168Z,88.04
2023-10-23T21:09:42.534Z,88.10
2023-10-23T21:12:09.911Z,88.18
2023-10-23T21:14:48.786Z,88.35
2023-10-23T21:17:17.533Z,88.41
2023-10-23T21:19:44.862Z,88.22
2023-10-23T21:22:12.479Z,88.57
2023-10-23T21:24:39.712Z,88.52
2023-10-23T21:27:07.333Z,88.76
2023-10-23T21:29:34.497Z,88.83
2023-10-23T21:32:02.086Z,88.90
2023-10-23T21:34:29.549Z,89.12
2023-10-23T21:36:57.125Z,88.99
2023-10-23T21:39:24.327Z,89.10
2023-10-23T21:41:52.019Z,89.21
2023-10-23T21:44:19.475Z,89.13
2023-10-23T21:46:46.773Z,89.31
2023-10-23T21:49:14.030Z,89.56
2023-10-23T21:51:41.572Z,89.65
2023-10-23T21:54:09.281Z,89.56
2023-10-23T21:56:36.651Z,89.93
2023-10-23T21:59:24.094Z,90.00
2023-10-23T22:01:54.002Z,89.65
2023-10-23T22:04:21.869Z,89.50
2023-10-23T22:06:49.303Z,89.59
2023-10-23T22:09:16.873Z,89.60
2023-10-23T22:11:44.765Z,89.91
2023-10-23T22:14:12.334Z,89.80
2023-10-23T22:16:39.570Z,89.89
2023-10-23T22:19:07.289Z,89.88
2023-10-23T22:21:34.494Z,89.92
2023-10-23T22:24:01.667Z,90.23
2023-10-23T22:26:30.689Z,90.53
2023-10-23T22:28:57.773Z,90.59
2023-10-23T22:31:24.929Z,90.52
2023-10-23T22:33:52.102Z,90.50
2023-10-23T22:36:19.313Z,90.83
2023-10-23T22:38:46.486Z,90.54
2023-10-23T22:41:13.634Z,90.84
2023-10-23T22:43:40.768Z,90.99
2023-10-23T22:46:08.053Z,90.81
2023-10-23T22:48:35.280Z,91.24
2023-10-23T22:51:02.819Z,91.33
2023-10-23T22:53:30.660Z,91.62
2023-10-23T22:56:00.334Z,91.55
2023-10-23T22:58:32.510Z,91.73
2023-10-23T23:01:00.343Z,91.76
2023-10-23T23:03:28.170Z,91.88
2023-10-23T23:06:03.691Z,91.95
2023-10-23T23:08:31.192Z,91.90
2023-10-23T23:10:58.620Z,92.16
2023-10-23T23:13:26.076Z,92.37
2023-10-23T23:15:54.466Z,92.31
2023-10-23T23:18:22.934Z,92.73
2023-10-23T23:20:53.577Z,92.80
2023-10-23T23:23:20.712Z,93.24
2023-10-23T23:25:47.910Z,93.13
2023-10-23T23:28:15.193Z,93.40
2023-10-23T23:30:42.253Z,93.38
2023-10-23T23:33:09.571Z,93.55
2023-10-23T23:35:37.688Z,94.01
2023-10-23T23:38:04.728Z,94.03
2023-10-23T23:40:31.849Z,93.94
2023-10-23T23:42:59.035Z,94.55
2023-10-23T23:45:26.074Z,94.37
2023-10-23T23:47:53.242Z,94.76
2023-10-23T23:50:20.361Z,94.73
2023-10-23T23:52:47.474Z,94.83
2023-10-23T23:55:14.773Z,94.71
2023-10-23T23:57:42.841Z,94.93
